createdAt,value
2016-09-04T00:00:03.617Z,1012.23
2016-09-04T00:01:03.635Z,1012.28
2016-09-04T00:02:03.664Z,1012.28
2016-09-04T00:03:03.681Z,1012.25
2016-09-04T00:04:03.704Z,1012.25
2016-09-04T00:05:03.734Z,1012.26
2016-09-04T00:06:03.766Z,1012.24
2016-09-04T00:07:03.785Z,1012.23
2016-09-04T00:08:03.852Z,1012.23
2016-09-04T00:09:03.832Z,1012.24
2016-09-04T00:10:03.856Z,1012.24
2016-09-04T00:11:03.880Z,1012.29
2016-09-04T00:12:03.899Z,1012.26
2016-09-04T00:13:03.929Z,1012.24
2016-09-04T00:14:03.956Z,1012.21
2016-09-04T00:15:03.975Z,1012.17
2016-09-04T00:16:04.006Z,1012.13
2016-09-04T00:17:04.025Z,1012.16
2016-09-04T00:18:04.054Z,1012.14
2016-09-04T00:19:04.074Z,1012.09
2016-09-04T00:20:04.106Z,1012.09
2016-09-04T00:21:04.126Z,1012.06
2016-09-04T00:22:04.139Z,1012.07
2016-09-04T00:23:04.172Z,1012.08
2016-09-04T00:24:04.190Z,1012.03
2016-09-04T00:25:04.219Z,1012
2016-09-04T00:26:04.263Z,1011.97
2016-09-04T00:27:04.266Z,1012
2016-09-04T00:28:04.287Z,1011.94
2016-09-04T00:29:04.312Z,1011.96
2016-09-04T00:30:04.392Z,1011.96
2016-09-04T00:31:04.364Z,1011.94
2016-09-04T00:32:04.385Z,1011.87
2016-09-04T00:33:04.416Z,1011.85
2016-09-04T00:34:04.435Z,1011.82
2016-09-04T00:35:04.466Z,1011.8
2016-09-04T00:36:04.482Z,1011.79
2016-09-04T00:37:04.505Z,1011.78
2016-09-04T00:38:04.529Z,1011.78
2016-09-04T00:39:04.553Z,1011.75
2016-09-04T00:40:04.595Z,1011.81
2016-09-04T00:41:04.605Z,1011.78
2016-09-04T00:42:04.632Z,1011.76
2016-09-04T00:43:04.653Z,1011.8
2016-09-04T00:44:04.684Z,1011.75
2016-09-04T00:45:04.701Z,1011.79
2016-09-04T00:46:04.725Z,1011.74
2016-09-04T00:47:04.755Z,1011.69
2016-09-04T00:48:04.771Z,1011.62
2016-09-04T00:49:04.791Z,1011.63
2016-09-04T00:50:04.829Z,1011.58
2016-09-04T00:51:04.844Z,1011.56
2016-09-04T00:52:04.869Z,1011.51
2016-09-04T00:53:04.894Z,1011.45
2016-09-04T00:54:04.912Z,1011.55
2016-09-04T00:55:04.944Z,1011.61
2016-09-04T00:56:04.963Z,1011.62
2016-09-04T00:57:04.989Z,1011.67
2016-09-04T00:58:05.013Z,1011.68
2016-09-04T00:59:05.049Z,1011.66
2016-09-04T01:00:05.064Z,1011.66
2016-09-04T01:01:05.085Z,1011.6
2016-09-04T01:02:05.115Z,1011.6
2016-09-04T01:03:05.128Z,1011.63
2016-09-04T01:04:05.158Z,1011.64
2016-09-04T01:05:05.180Z,1011.64
2016-09-04T01:06:05.210Z,1011.65
2016-09-04T01:07:05.241Z,1011.65
2016-09-04T01:08:05.255Z,1011.68
2016-09-04T01:09:05.283Z,1011.67
2016-09-04T01:10:05.304Z,1011.68
2016-09-04T01:11:05.333Z,1011.68
2016-09-04T01:12:05.350Z,1011.64
2016-09-04T01:13:05.370Z,1011.67
2016-09-04T01:14:05.404Z,1011.71
2016-09-04T01:15:05.420Z,1011.69
2016-09-04T01:16:05.440Z,1011.69
2016-09-04T01:17:05.475Z,1011.67
2016-09-04T01:18:05.503Z,1011.65
2016-09-04T01:19:05.512Z,1011.61
2016-09-04T01:20:05.539Z,1011.62
2016-09-04T01:21:05.561Z,1011.59
2016-09-04T01:22:05.594Z,1011.63
2016-09-04T01:23:05.609Z,1011.61
2016-09-04T01:24:05.635Z,1011.6
2016-09-04T01:25:05.660Z,1011.6
2016-09-04T01:26:05.682Z,1011.59
2016-09-04T01:27:05.704Z,1011.57
2016-09-04T01:28:05.731Z,1011.56
2016-09-04T01:29:05.756Z,1011.54
2016-09-04T01:30:05.826Z,1011.51
2016-09-04T01:31:05.802Z,1011.48
2016-09-04T01:32:05.834Z,1011.5
2016-09-04T01:33:05.852Z,1011.53
2016-09-04T01:34:05.872Z,1011.47
2016-09-04T01:35:05.908Z,1011.46
2016-09-04T01:36:05.927Z,1011.45
2016-09-04T01:37:05.953Z,1011.41
2016-09-04T01:38:05.971Z,1011.41
2016-09-04T01:39:06.004Z,1011.37
2016-09-04T01:40:06.023Z,1011.39
2016-09-04T01:41:06.051Z,1011.34
2016-09-04T01:42:06.065Z,1011.39
2016-09-04T01:43:06.089Z,1011.34
2016-09-04T01:44:06.126Z,1011.35
2016-09-04T01:45:06.132Z,1011.33
2016-09-04T01:46:06.162Z,1011.27
2016-09-04T01:47:06.202Z,1011.28
2016-09-04T01:48:06.213Z,1011.24
2016-09-04T01:49:06.232Z,1011.21
2016-09-04T01:50:06.260Z,1011.19
2016-09-04T01:51:06.282Z,1011.23
2016-09-04T01:52:06.303Z,1011.14
2016-09-04T01:53:06.327Z,1011.19
2016-09-04T01:54:06.349Z,1011.17
2016-09-04T01:55:06.373Z,1011.13
2016-09-04T01:56:06.397Z,1011.14
2016-09-04T01:57:06.422Z,1011.17
2016-09-04T01:58:06.450Z,1011.1
2016-09-04T01:59:06.473Z,1011.12
2016-09-04T02:00:06.488Z,1011.09
2016-09-04T02:01:06.520Z,1011.09
2016-09-04T02:02:06.536Z,1011.08
2016-09-04T02:03:06.561Z,1011.05
2016-09-04T02:04:06.586Z,1011.04
2016-09-04T02:05:06.609Z,1011.03
2016-09-04T02:06:06.635Z,1011.05
2016-09-04T02:07:06.664Z,1011.04
2016-09-04T02:08:06.683Z,1011.03
2016-09-04T02:09:06.710Z,1011.06
2016-09-04T02:10:06.730Z,1011.05
2016-09-04T02:11:06.757Z,1011.07
2016-09-04T02:12:06.781Z,1011.09
2016-09-04T02:13:06.801Z,1011.09
2016-09-04T02:14:06.830Z,1011.1
2016-09-04T02:15:06.852Z,1011.05
2016-09-04T02:16:06.872Z,1011.06
2016-09-04T02:17:06.895Z,1011
2016-09-04T02:18:06.926Z,1010.99
2016-09-04T02:19:06.943Z,1010.99
2016-09-04T02:20:06.970Z,1010.95
2016-09-04T02:21:06.992Z,1010.97
2016-09-04T02:22:07.013Z,1010.95
2016-09-04T02:23:07.041Z,1010.9
2016-09-04T02:24:07.062Z,1010.89
2016-09-04T02:25:07.088Z,1010.88
2016-09-04T02:26:07.105Z,1010.9
2016-09-04T02:27:07.131Z,1010.89
2016-09-04T02:28:07.154Z,1010.87
2016-09-04T02:29:07.178Z,1010.82
2016-09-04T02:30:07.253Z,1010.83
2016-09-04T02:31:07.231Z,1010.84
2016-09-04T02:32:07.252Z,1010.82
2016-09-04T02:33:07.280Z,1010.82
2016-09-04T02:34:07.297Z,1010.8
2016-09-04T02:35:07.370Z,1010.78
2016-09-04T02:36:07.351Z,1010.8
2016-09-04T02:37:07.372Z,1010.78
2016-09-04T02:38:07.392Z,1010.77
2016-09-04T02:39:07.419Z,1010.77
2016-09-04T02:40:07.436Z,1010.73
2016-09-04T02:41:07.467Z,1010.71
2016-09-04T02:42:07.491Z,1010.7
2016-09-04T02:43:07.509Z,1010.68
2016-09-04T02:44:07.534Z,1010.67
2016-09-04T02:45:07.553Z,1010.67
2016-09-04T02:46:07.579Z,1010.64
2016-09-04T02:47:07.599Z,1010.65
2016-09-04T02:48:07.629Z,1010.59
2016-09-04T02:49:07.649Z,1010.62
2016-09-04T02:50:07.681Z,1010.65
2016-09-04T02:51:07.695Z,1010.61
2016-09-04T02:52:07.719Z,1010.56
2016-09-04T02:53:07.751Z,1010.55
2016-09-04T02:54:07.771Z,1010.57
2016-09-04T02:55:07.798Z,1010.56
2016-09-04T02:56:07.817Z,1010.57
2016-09-04T02:57:07.842Z,1010.58
2016-09-04T02:58:07.861Z,1010.59
2016-09-04T02:59:07.891Z,1010.54
2016-09-04T03:00:07.910Z,1010.6
2016-09-04T03:01:07.941Z,1010.59
2016-09-04T03:02:07.961Z,1010.58
2016-09-04T03:03:07.981Z,1010.53
2016-09-04T03:04:08.012Z,1010.49
2016-09-04T03:05:08.028Z,1010.46
2016-09-04T03:06:08.054Z,1010.49
2016-09-04T03:07:08.075Z,1010.47
2016-09-04T03:08:08.150Z,1010.46
2016-09-04T03:09:08.121Z,1010.42
2016-09-04T03:10:08.147Z,1010.4
2016-09-04T03:11:08.171Z,1010.38
2016-09-04T03:12:08.189Z,1010.37
2016-09-04T03:13:08.215Z,1010.34
2016-09-04T03:14:08.241Z,1010.33
2016-09-04T03:15:08.259Z,1010.34
2016-09-04T03:16:08.290Z,1010.3
2016-09-04T03:17:08.307Z,1010.31
2016-09-04T03:18:08.329Z,1010.27
2016-09-04T03:19:08.358Z,1010.31
2016-09-04T03:20:08.377Z,1010.27
2016-09-04T03:21:08.402Z,1010.28
2016-09-04T03:22:08.432Z,1010.24
2016-09-04T03:23:08.450Z,1010.22
2016-09-04T03:24:08.474Z,1010.25
2016-09-04T03:25:08.499Z,1010.24
2016-09-04T03:26:08.518Z,1010.26
2016-09-04T03:27:08.539Z,1010.26
2016-09-04T03:28:08.572Z,1010.28
2016-09-04T03:29:08.587Z,1010.21
2016-09-04T03:30:08.666Z,1010.22
2016-09-04T03:31:08.635Z,1010.18
2016-09-04T03:32:08.660Z,1010.14
2016-09-04T03:33:08.689Z,1010.16
2016-09-04T03:34:08.711Z,1010.11
2016-09-04T03:35:08.732Z,1010.1
2016-09-04T03:36:08.757Z,1010.08
2016-09-04T03:37:08.779Z,1010.07
2016-09-04T03:38:08.800Z,1010.05
2016-09-04T03:39:08.828Z,1010.09
2016-09-04T03:40:08.851Z,1010.07
2016-09-04T03:41:08.873Z,1010.04
2016-09-04T03:42:08.896Z,1010.01
2016-09-04T03:43:08.922Z,1010.01
2016-09-04T03:44:08.942Z,1010.01
2016-09-04T03:45:08.967Z,1010
2016-09-04T03:46:08.993Z,1010
2016-09-04T03:47:09.014Z,1009.98
2016-09-04T03:48:09.036Z,1010
2016-09-04T03:49:09.060Z,1009.96
2016-09-04T03:50:09.082Z,1009.96
2016-09-04T03:51:09.113Z,1009.94
2016-09-04T03:52:09.129Z,1009.94
2016-09-04T03:53:09.149Z,1009.88
2016-09-04T03:54:09.187Z,1009.9
2016-09-04T03:55:09.199Z,1009.86
2016-09-04T03:56:09.223Z,1009.86
2016-09-04T03:57:09.246Z,1009.86
2016-09-04T03:58:09.274Z,1009.84
2016-09-04T03:59:09.292Z,1009.82
2016-09-04T04:00:09.318Z,1009.75
2016-09-04T04:01:09.345Z,1009.8
2016-09-04T04:02:09.361Z,1009.78
2016-09-04T04:03:09.392Z,1009.82
2016-09-04T04:04:09.421Z,1009.8
2016-09-04T04:05:09.535Z,1009.86
2016-09-04T04:06:09.464Z,1009.8
2016-09-04T04:07:09.527Z,1009.81
2016-09-04T04:08:09.500Z,1009.77
2016-09-04T04:09:09.528Z,1009.77
2016-09-04T04:10:09.548Z,1009.78
2016-09-04T04:11:09.575Z,1009.77
2016-09-04T04:12:09.603Z,1009.74
2016-09-04T04:13:09.623Z,1009.78
2016-09-04T04:14:09.642Z,1009.77
2016-09-04T04:15:09.665Z,1009.78
2016-09-04T04:16:09.703Z,1009.79
2016-09-04T04:17:09.714Z,1009.77
2016-09-04T04:18:09.737Z,1009.79
2016-09-04T04:19:09.761Z,1009.78
2016-09-04T04:20:09.784Z,1009.77
2016-09-04T04:21:09.806Z,1009.76
2016-09-04T04:22:09.843Z,1009.83
2016-09-04T04:23:09.852Z,1009.78
2016-09-04T04:24:09.881Z,1009.84
2016-09-04T04:25:09.899Z,1009.86
2016-09-04T04:26:09.924Z,1009.83
2016-09-04T04:27:09.954Z,1009.91
2016-09-04T04:28:09.975Z,1009.86
2016-09-04T04:29:10.002Z,1009.91
2016-09-04T04:30:10.025Z,1009.92
2016-09-04T04:31:10.045Z,1009.94
2016-09-04T04:32:10.064Z,1009.98
2016-09-04T04:33:10.088Z,1009.98
2016-09-04T04:34:10.113Z,1010
2016-09-04T04:35:10.134Z,1010.02
2016-09-04T04:36:10.159Z,1009.99
2016-09-04T04:37:10.185Z,1010
2016-09-04T04:38:10.205Z,1010.04
2016-09-04T04:39:10.235Z,1010.01
2016-09-04T04:40:10.255Z,1010
2016-09-04T04:41:10.284Z,1010.01
2016-09-04T04:42:10.301Z,1010.05
2016-09-04T04:43:10.318Z,1010.05
2016-09-04T04:44:10.352Z,1010.05
2016-09-04T04:45:10.373Z,1010.09
2016-09-04T04:46:10.390Z,1010.1
2016-09-04T04:47:10.413Z,1010.07
2016-09-04T04:48:10.443Z,1010.08
2016-09-04T04:49:10.463Z,1010.13
2016-09-04T04:50:10.496Z,1010.12
2016-09-04T04:51:10.513Z,1010.05
2016-09-04T04:52:10.533Z,1010.11
2016-09-04T04:53:10.553Z,1010.05
2016-09-04T04:54:10.584Z,1010.03
2016-09-04T04:55:10.602Z,1010.03
2016-09-04T04:56:10.623Z,1010.02
2016-09-04T04:57:10.653Z,1010
2016-09-04T04:58:10.675Z,1009.94
2016-09-04T04:59:10.704Z,1009.91
2016-09-04T05:00:10.721Z,1009.95
2016-09-04T05:01:10.741Z,1009.97
2016-09-04T05:02:10.775Z,1010
2016-09-04T05:03:10.793Z,1009.93
2016-09-04T05:04:10.815Z,1009.99
2016-09-04T05:05:10.837Z,1009.96
2016-09-04T05:06:10.866Z,1009.96
2016-09-04T05:07:10.885Z,1009.99
2016-09-04T05:08:10.915Z,1009.94
2016-09-04T05:09:10.934Z,1009.97
2016-09-04T05:10:10.959Z,1009.95
2016-09-04T05:11:10.982Z,1009.9
2016-09-04T05:12:11.006Z,1009.88
2016-09-04T05:13:11.023Z,1009.91
2016-09-04T05:14:11.051Z,1009.87
2016-09-04T05:15:11.075Z,1009.9
2016-09-04T05:16:11.093Z,1009.87
2016-09-04T05:17:11.119Z,1009.89
2016-09-04T05:18:11.144Z,1009.91
2016-09-04T05:19:11.163Z,1009.88
2016-09-04T05:20:11.196Z,1009.86
2016-09-04T05:21:11.213Z,1009.9
2016-09-04T05:22:11.241Z,1009.85
2016-09-04T05:23:11.259Z,1009.88
2016-09-04T05:24:11.291Z,1009.86
2016-09-04T05:25:11.319Z,1009.93
2016-09-04T05:26:11.446Z,1009.94
2016-09-04T05:27:11.354Z,1009.93
2016-09-04T05:28:11.382Z,1009.93
2016-09-04T05:29:11.401Z,1009.93
2016-09-04T05:30:11.477Z,1009.9
2016-09-04T05:31:11.707Z,1009.91
2016-09-04T05:32:11.476Z,1009.84
2016-09-04T05:33:11.501Z,1009.88
2016-09-04T05:34:11.519Z,1009.86
2016-09-04T05:35:11.550Z,1009.87
2016-09-04T05:36:11.567Z,1009.84
2016-09-04T05:37:11.705Z,1009.84
2016-09-04T05:38:11.613Z,1009.78
2016-09-04T05:39:11.640Z,1009.78
2016-09-04T05:40:11.664Z,1009.79
2016-09-04T05:41:11.689Z,1009.74
2016-09-04T05:42:11.711Z,1009.79
2016-09-04T05:43:11.737Z,1009.75
2016-09-04T05:44:11.762Z,1009.77
2016-09-04T05:45:11.777Z,1009.78
2016-09-04T05:46:11.932Z,1009.79
2016-09-04T05:47:11.826Z,1009.83
2016-09-04T05:48:11.849Z,1009.79
2016-09-04T05:49:11.869Z,1009.74
2016-09-04T05:50:11.900Z,1009.76
2016-09-04T05:51:11.922Z,1009.76
2016-09-04T05:52:11.945Z,1009.76
2016-09-04T05:53:11.976Z,1009.75
2016-09-04T05:54:11.992Z,1009.75
2016-09-04T05:55:12.015Z,1009.77
2016-09-04T05:56:12.039Z,1009.77
2016-09-04T05:57:12.065Z,1009.79
2016-09-04T05:58:12.093Z,1009.85
2016-09-04T05:59:12.112Z,1009.85
2016-09-04T06:00:12.134Z,1009.91
2016-09-04T06:01:12.201Z,1009.91
2016-09-04T06:02:12.179Z,1009.91
2016-09-04T06:03:12.204Z,1009.95
2016-09-04T06:04:12.236Z,1009.91
2016-09-04T06:05:12.258Z,1009.94
2016-09-04T06:06:12.277Z,1009.93
2016-09-04T06:07:12.302Z,1009.95
2016-09-04T06:08:12.325Z,1009.96
2016-09-04T06:09:12.357Z,1009.92
2016-09-04T06:10:12.373Z,1009.96
2016-09-04T06:11:12.396Z,1009.9
2016-09-04T06:12:12.426Z,1009.94
2016-09-04T06:13:12.446Z,1009.92
2016-09-04T06:14:12.466Z,1009.9
2016-09-04T06:15:12.490Z,1009.95
2016-09-04T06:16:12.515Z,1009.96
2016-09-04T06:17:12.544Z,1009.98
2016-09-04T06:18:12.577Z,1009.95
2016-09-04T06:19:12.585Z,1009.98
2016-09-04T06:20:12.617Z,1009.99
2016-09-04T06:21:12.636Z,1010.02
2016-09-04T06:22:12.660Z,1010.01
2016-09-04T06:23:12.681Z,1010.02
2016-09-04T06:24:12.704Z,1009.97
2016-09-04T06:25:12.724Z,1009.98
2016-09-04T06:26:12.757Z,1009.97
2016-09-04T06:27:12.777Z,1009.9
2016-09-04T06:28:12.798Z,1009.97
2016-09-04T06:29:12.821Z,1009.95
2016-09-04T06:30:12.893Z,1009.88
2016-09-04T06:31:12.874Z,1009.91
2016-09-04T06:32:12.904Z,1009.95
2016-09-04T06:33:12.924Z,1009.95
2016-09-04T06:34:12.946Z,1009.9
2016-09-04T06:35:12.973Z,1009.91
2016-09-04T06:36:12.995Z,1009.87
2016-09-04T06:37:13.024Z,1009.85
2016-09-04T06:38:13.043Z,1009.79
2016-09-04T06:39:13.072Z,1009.78
2016-09-04T06:40:13.092Z,1009.72
2016-09-04T06:41:13.112Z,1009.63
2016-09-04T06:42:13.141Z,1009.56
2016-09-04T06:43:13.168Z,1009.59
2016-09-04T06:44:13.194Z,1009.58
2016-09-04T06:45:13.216Z,1009.63
2016-09-04T06:46:13.253Z,1009.6
2016-09-04T06:47:13.265Z,1009.64
2016-09-04T06:48:13.289Z,1009.67
2016-09-04T06:49:13.317Z,1009.67
2016-09-04T06:50:13.341Z,1009.68
2016-09-04T06:51:13.365Z,1009.72
2016-09-04T06:52:13.383Z,1009.66
2016-09-04T06:53:13.416Z,1009.62
2016-09-04T06:54:13.445Z,1009.62
2016-09-04T06:55:13.467Z,1009.59
2016-09-04T06:56:13.532Z,1009.61
2016-09-04T06:57:13.515Z,1009.56
2016-09-04T06:58:13.539Z,1009.53
2016-09-04T06:59:13.566Z,1009.55
2016-09-04T07:00:13.584Z,1009.58
2016-09-04T07:01:13.615Z,1009.62
2016-09-04T07:02:13.637Z,1009.6
2016-09-04T07:03:13.663Z,1009.6
2016-09-04T07:04:13.695Z,1009.67
2016-09-04T07:05:13.719Z,1009.68
2016-09-04T07:06:13.741Z,1009.69
2016-09-04T07:07:13.773Z,1009.69
2016-09-04T07:08:13.794Z,1009.71
2016-09-04T07:09:13.879Z,1009.73
2016-09-04T07:10:13.851Z,1009.74
2016-09-04T07:11:13.873Z,1009.73
2016-09-04T07:12:13.896Z,1009.74
2016-09-04T07:13:13.924Z,1009.69
2016-09-04T07:14:13.945Z,1009.69
2016-09-04T07:15:13.976Z,1009.72
2016-09-04T07:16:13.998Z,1009.67
2016-09-04T07:17:14.027Z,1009.65
2016-09-04T07:18:14.152Z,1009.64
2016-09-04T07:19:14.075Z,1009.65
2016-09-04T07:20:14.102Z,1009.61
2016-09-04T07:21:14.133Z,1009.66
2016-09-04T07:22:14.154Z,1009.65
2016-09-04T07:23:14.181Z,1009.64
2016-09-04T07:24:14.214Z,1009.7
2016-09-04T07:25:14.227Z,1009.72
2016-09-04T07:26:14.270Z,1009.72
2016-09-04T07:27:14.284Z,1009.73
2016-09-04T07:28:14.310Z,1009.69
2016-09-04T07:29:14.336Z,1009.72
2016-09-04T07:30:14.363Z,1009.68
2016-09-04T07:31:14.394Z,1009.75
2016-09-04T07:32:14.430Z,1009.76
2016-09-04T07:33:14.442Z,1009.78
2016-09-04T07:34:14.476Z,1009.79
2016-09-04T07:35:14.491Z,1009.78
2016-09-04T07:36:14.535Z,1009.79
2016-09-04T07:37:14.550Z,1009.83
2016-09-04T07:38:14.575Z,1009.82
2016-09-04T07:39:14.604Z,1009.85
2016-09-04T07:40:14.625Z,1009.85
2016-09-04T07:41:14.655Z,1009.86
2016-09-04T07:42:14.673Z,1009.84
2016-09-04T07:43:14.702Z,1009.81
2016-09-04T07:44:14.735Z,1009.81
2016-09-04T07:45:14.755Z,1009.79
2016-09-04T07:46:14.786Z,1009.74
2016-09-04T07:47:14.808Z,1009.74
2016-09-04T07:48:14.836Z,1009.8
2016-09-04T07:49:14.872Z,1009.82
2016-09-04T07:50:14.899Z,1009.77
2016-09-04T07:51:14.911Z,1009.74
2016-09-04T07:52:14.944Z,1009.67
2016-09-04T07:53:14.973Z,1009.68
2016-09-04T07:54:14.993Z,1009.6
2016-09-04T07:55:15.023Z,1009.62
2016-09-04T07:56:15.041Z,1009.61
2016-09-04T07:57:15.071Z,1009.58
2016-09-04T07:58:15.105Z,1009.64
2016-09-04T07:59:15.120Z,1009.63
2016-09-04T08:00:15.176Z,1009.64
2016-09-04T08:01:15.177Z,1009.68
2016-09-04T08:02:15.205Z,1009.67
2016-09-04T08:03:15.238Z,1009.63
2016-09-04T08:04:15.257Z,1009.6
2016-09-04T08:05:15.285Z,1009.57
2016-09-04T08:06:15.305Z,1009.57
2016-09-04T08:07:15.346Z,1009.59
2016-09-04T08:08:15.353Z,1009.62
2016-09-04T08:09:15.380Z,1009.61
2016-09-04T08:10:15.414Z,1009.59
2016-09-04T08:11:15.595Z,1009.62
2016-09-04T08:12:15.465Z,1009.65
2016-09-04T08:13:15.508Z,1009.64
2016-09-04T08:14:15.516Z,1009.63
2016-09-04T08:15:15.545Z,1009.59
2016-09-04T08:16:15.587Z,1009.63
2016-09-04T08:17:15.607Z,1009.6
2016-09-04T08:18:15.622Z,1009.58
2016-09-04T08:19:15.657Z,1009.55
2016-09-04T08:20:15.685Z,1009.55
2016-09-04T08:21:15.706Z,1009.57
2016-09-04T08:22:15.762Z,1009.6
2016-09-04T08:23:15.767Z,1009.56
2016-09-04T08:24:15.782Z,1009.61
2016-09-04T08:25:15.818Z,1009.66
2016-09-04T08:26:15.843Z,1009.64
2016-09-04T08:27:15.866Z,1009.72
2016-09-04T08:28:15.892Z,1009.66
2016-09-04T08:29:15.924Z,1009.67
2016-09-04T08:30:15.941Z,1009.7
2016-09-04T08:31:16.079Z,1009.78
2016-09-04T08:32:16.005Z,1009.81
2016-09-04T08:33:16.030Z,1009.84
2016-09-04T08:34:16.053Z,1009.87
2016-09-04T08:35:16.082Z,1009.91
2016-09-04T08:36:16.111Z,1009.86
2016-09-04T08:37:16.139Z,1009.79
2016-09-04T08:38:16.169Z,1009.8
2016-09-04T08:39:16.195Z,1009.73
2016-09-04T08:40:16.221Z,1009.66
2016-09-04T08:41:16.453Z,1009.64
2016-09-04T08:42:16.482Z,1009.55
2016-09-04T08:43:16.463Z,1009.6
2016-09-04T08:44:16.483Z,1009.53
2016-09-04T08:45:16.561Z,1009.5
2016-09-04T08:46:16.551Z,1009.39
2016-09-04T08:47:16.461Z,1009.33
2016-09-04T08:48:16.555Z,1009.33
2016-09-04T08:49:16.486Z,1009.3
2016-09-04T08:50:16.545Z,1009.31
2016-09-04T08:51:16.527Z,1009.31
2016-09-04T08:52:16.602Z,1009.31
2016-09-04T08:53:16.578Z,1009.26
2016-09-04T08:54:16.601Z,1009.25
2016-09-04T08:55:16.682Z,1009.27
2016-09-04T08:56:16.665Z,1009.28
2016-09-04T08:57:16.694Z,1009.18
2016-09-04T08:58:16.710Z,1009.12
2016-09-04T08:59:16.740Z,1009.11
2016-09-04T09:00:16.761Z,1009.09
2016-09-04T09:01:16.786Z,1009
2016-09-04T09:02:16.810Z,1008.93
2016-09-04T09:03:16.846Z,1008.89
2016-09-04T09:04:16.869Z,1008.88
2016-09-04T09:05:16.910Z,1008.9
2016-09-04T09:06:16.924Z,1008.81
2016-09-04T09:07:16.960Z,1008.89
2016-09-04T09:08:16.986Z,1008.98
2016-09-04T09:09:17.003Z,1009.05
2016-09-04T09:10:17.026Z,1009.16
2016-09-04T09:11:17.046Z,1009.19
2016-09-04T09:12:17.076Z,1009.24
2016-09-04T09:13:17.301Z,1009.31
2016-09-04T09:14:17.125Z,1009.28
2016-09-04T09:15:17.150Z,1009.3
2016-09-04T09:16:17.174Z,1009.3
2016-09-04T09:17:17.206Z,1009.27
2016-09-04T09:18:17.232Z,1009.15
2016-09-04T09:19:17.253Z,1009.08
2016-09-04T09:20:17.280Z,1009.04
2016-09-04T09:21:17.311Z,1009.03
2016-09-04T09:22:17.335Z,1008.96
2016-09-04T09:23:17.363Z,1008.9
2016-09-04T09:24:17.400Z,1008.91
2016-09-04T09:25:17.410Z,1008.93
2016-09-04T09:26:17.438Z,1008.98
2016-09-04T09:27:17.461Z,1008.97
2016-09-04T09:28:17.491Z,1008.93
2016-09-04T09:29:17.512Z,1008.93
2016-09-04T09:30:17.594Z,1009.03
2016-09-04T09:31:17.562Z,1009.04
2016-09-04T09:32:17.586Z,1009.06
2016-09-04T09:33:17.611Z,1009.01
2016-09-04T09:34:17.651Z,1009
2016-09-04T09:35:17.662Z,1009.04
2016-09-04T09:36:17.702Z,1009.05
2016-09-04T09:37:17.757Z,1009.02
2016-09-04T09:38:17.741Z,1009.02
2016-09-04T09:39:17.768Z,1008.96
2016-09-04T09:40:17.783Z,1008.94
2016-09-04T09:41:17.818Z,1008.99
2016-09-04T09:42:17.842Z,1008.96
2016-09-04T09:43:17.859Z,1008.96
2016-09-04T09:44:17.887Z,1008.92
2016-09-04T09:45:17.909Z,1008.88
2016-09-04T09:46:17.942Z,1008.84
2016-09-04T09:47:17.961Z,1008.9
2016-09-04T09:48:18.092Z,1008.87
2016-09-04T09:49:18.010Z,1008.9
2016-09-04T09:50:18.030Z,1008.89
2016-09-04T09:51:18.060Z,1008.91
2016-09-04T09:52:18.098Z,1008.88
2016-09-04T09:53:18.114Z,1008.85
2016-09-04T09:54:18.135Z,1008.89
2016-09-04T09:55:18.160Z,1008.86
2016-09-04T09:56:18.194Z,1008.89
2016-09-04T09:57:18.222Z,1008.91
2016-09-04T09:58:18.239Z,1008.92
2016-09-04T09:59:18.269Z,1008.93
2016-09-04T10:00:18.291Z,1008.97
2016-09-04T10:01:18.316Z,1008.99
2016-09-04T10:02:18.331Z,1008.95
2016-09-04T10:03:18.360Z,1008.93
2016-09-04T10:04:18.390Z,1008.96
2016-09-04T10:05:18.417Z,1008.95
2016-09-04T10:06:18.438Z,1008.92
2016-09-04T10:07:18.459Z,1008.87
2016-09-04T10:08:18.494Z,1008.8
2016-09-04T10:09:18.530Z,1008.77
2016-09-04T10:10:18.537Z,1008.66
2016-09-04T10:11:18.566Z,1008.69
2016-09-04T10:12:18.592Z,1008.7
2016-09-04T10:13:18.622Z,1008.69
2016-09-04T10:14:18.640Z,1008.68
2016-09-04T10:15:18.681Z,1008.71
2016-09-04T10:16:18.696Z,1008.75
2016-09-04T10:17:18.733Z,1008.73
2016-09-04T10:18:18.753Z,1008.75
2016-09-04T10:19:18.777Z,1008.82
2016-09-04T10:20:18.807Z,1008.82
2016-09-04T10:21:18.827Z,1008.89
2016-09-04T10:22:18.856Z,1008.88
2016-09-04T10:23:18.878Z,1008.93
2016-09-04T10:24:18.904Z,1008.86
2016-09-04T10:25:18.931Z,1008.89
2016-09-04T10:26:18.960Z,1008.86
2016-09-04T10:27:18.981Z,1008.88
2016-09-04T10:28:19.013Z,1008.91
2016-09-04T10:29:19.033Z,1008.88
2016-09-04T10:30:19.062Z,1008.84
2016-09-04T10:31:19.085Z,1008.78
2016-09-04T10:32:19.114Z,1008.75
2016-09-04T10:33:19.133Z,1008.72
2016-09-04T10:34:19.162Z,1008.8
2016-09-04T10:35:19.193Z,1008.8
2016-09-04T10:36:19.206Z,1008.83
2016-09-04T10:37:19.241Z,1008.84
2016-09-04T10:38:19.271Z,1008.78
2016-09-04T10:39:19.286Z,1008.78
2016-09-04T10:40:19.314Z,1008.71
2016-09-04T10:41:19.352Z,1008.68
2016-09-04T10:42:19.361Z,1008.61
2016-09-04T10:43:19.386Z,1008.59
2016-09-04T10:44:19.412Z,1008.53
2016-09-04T10:45:19.443Z,1008.46
2016-09-04T10:46:19.461Z,1008.5
2016-09-04T10:47:19.492Z,1008.5
2016-09-04T10:48:19.512Z,1008.56
2016-09-04T10:49:19.539Z,1008.52
2016-09-04T10:50:19.561Z,1008.49
2016-09-04T10:51:19.589Z,1008.49
2016-09-04T10:52:19.625Z,1008.5
2016-09-04T10:53:19.640Z,1008.5
2016-09-04T10:54:19.661Z,1008.48
2016-09-04T10:55:19.690Z,1008.48
2016-09-04T10:56:19.713Z,1008.48
2016-09-04T10:57:19.754Z,1008.51
2016-09-04T10:58:19.760Z,1008.55
2016-09-04T10:59:19.790Z,1008.46
2016-09-04T11:00:19.816Z,1008.44
2016-09-04T11:01:19.846Z,1008.42
2016-09-04T11:02:19.862Z,1008.38
2016-09-04T11:03:19.900Z,1008.41
2016-09-04T11:04:19.912Z,1008.41
2016-09-04T11:05:20.041Z,1008.4
2016-09-04T11:06:19.966Z,1008.45
2016-09-04T11:07:20.195Z,1008.5
2016-09-04T11:08:20.031Z,1008.5
2016-09-04T11:09:20.042Z,1008.5
2016-09-04T11:10:20.070Z,1008.46
2016-09-04T11:11:20.094Z,1008.42
2016-09-04T11:12:20.121Z,1008.42
2016-09-04T11:13:20.143Z,1008.42
2016-09-04T11:14:20.184Z,1008.45
2016-09-04T11:15:20.201Z,1008.49
2016-09-04T11:16:20.272Z,1008.51
2016-09-04T11:17:20.254Z,1008.4
2016-09-04T11:18:20.272Z,1008.46
2016-09-04T11:19:20.306Z,1008.46
2016-09-04T11:20:20.336Z,1008.43
2016-09-04T11:21:20.363Z,1008.48
2016-09-04T11:22:20.382Z,1008.39
2016-09-04T11:23:20.409Z,1008.42
2016-09-04T11:24:20.433Z,1008.36
2016-09-04T11:25:20.465Z,1008.34
2016-09-04T11:26:20.487Z,1008.24
2016-09-04T11:27:20.520Z,1008.19
2016-09-04T11:28:20.543Z,1008.16
2016-09-04T11:29:20.568Z,1008.06
2016-09-04T11:30:20.656Z,1007.99
2016-09-04T11:31:20.622Z,1008.03
2016-09-04T11:32:20.657Z,1008.05
2016-09-04T11:33:20.672Z,1008.08
2016-09-04T11:34:20.714Z,1008.09
2016-09-04T11:35:20.735Z,1008.07
2016-09-04T11:36:20.760Z,1008.13
2016-09-04T11:37:20.787Z,1008.08
2016-09-04T11:38:20.813Z,1008
2016-09-04T11:39:20.840Z,1007.97
2016-09-04T11:40:20.871Z,1007.93
2016-09-04T11:41:20.896Z,1007.9
2016-09-04T11:42:20.922Z,1007.87
2016-09-04T11:43:20.955Z,1007.88
2016-09-04T11:44:20.983Z,1007.84
2016-09-04T11:45:21.003Z,1007.9
2016-09-04T11:46:21.042Z,1007.85
2016-09-04T11:47:21.058Z,1007.84
2016-09-04T11:48:21.095Z,1007.79
2016-09-04T11:49:21.116Z,1007.85
2016-09-04T11:50:21.143Z,1007.83
2016-09-04T11:51:21.173Z,1007.92
2016-09-04T11:52:21.194Z,1007.91
2016-09-04T11:53:21.234Z,1007.9
2016-09-04T11:54:21.255Z,1007.93
2016-09-04T11:55:21.292Z,1007.86
2016-09-04T11:56:21.303Z,1007.85
2016-09-04T11:57:21.343Z,1007.88
2016-09-04T11:58:21.367Z,1007.83
2016-09-04T11:59:21.398Z,1007.84
2016-09-04T12:00:21.424Z,1007.81
2016-09-04T12:01:21.450Z,1007.82
2016-09-04T12:02:21.473Z,1007.85
2016-09-04T12:03:21.503Z,1007.81
2016-09-04T12:04:21.534Z,1007.79
2016-09-04T12:05:21.560Z,1007.82
2016-09-04T12:06:21.585Z,1007.94
2016-09-04T12:07:21.625Z,1007.98
2016-09-04T12:08:21.641Z,1008
2016-09-04T12:09:21.675Z,1007.98